createdAt,value
2022-08-21T00:00:20.391Z,12.38
2022-08-21T00:03:17.339Z,10.98
2022-08-21T00:06:01.436Z,12.52
2022-08-21T00:08:49.213Z,10.82
2022-08-21T00:11:34.471Z,8.02
2022-08-21T00:14:23.317Z,15.93
2022-08-21T00:17:04.486Z,7.50
2022-08-21T00:19:51.383Z,12.02
2022-08-21T00:22:45.640Z,9.80
2022-08-21T00:25:34.300Z,13.00
2022-08-21T00:28:18.957Z,10.50
2022-08-21T00:31:09.925Z,9.90
2022-08-21T00:33:53.059Z,13.45
2022-08-21T00:36:49.373Z,12.65
2022-08-21T00:39:31.011Z,10.63
2022-08-21T00:42:21.428Z,11.90
2022-08-21T00:45:02.227Z,12.18
2022-08-21T00:47:50.946Z,10.23
2022-08-21T00:50:39.608Z,16.05
2022-08-21T00:53:27.786Z,11.45
2022-08-21T00:56:10.249Z,10.30
2022-08-21T00:59:03.371Z,12.65
2022-08-21T01:01:45.372Z,14.15
2022-08-21T01:04:34.097Z,10.02
2022-08-21T01:07:16.347Z,10.98
2022-08-21T01:10:06.419Z,10.90
2022-08-21T01:12:48.999Z,7.75
2022-08-21T01:15:39.459Z,11.05
2022-08-21T01:18:21.286Z,12.43
2022-08-21T01:21:15.388Z,10.30
2022-08-21T01:24:00.728Z,8.18
2022-08-21T01:26:49.160Z,18.15
2022-08-21T01:29:55.260Z,11.40
2022-08-21T01:32:44.389Z,8.50
2022-08-21T01:35:27.259Z,11.07
2022-08-21T01:38:17.095Z,12.85
2022-08-21T01:40:58.259Z,9.23
2022-08-21T01:43:46.393Z,11.63
2022-08-21T01:46:27.771Z,9.63
2022-08-21T01:49:16.266Z,8.15
2022-08-21T01:51:57.398Z,10.02
2022-08-21T01:54:46.408Z,11.18
2022-08-21T01:57:36.683Z,8.63
2022-08-21T02:00:28.977Z,8.93
2022-08-21T02:03:11.024Z,9.73
2022-08-21T02:05:58.401Z,10.70
2022-08-21T02:08:40.482Z,11.93
2022-08-21T02:11:28.926Z,10.02
2022-08-21T02:14:10.279Z,12.07
2022-08-21T02:17:08.800Z,7.80
2022-08-21T02:19:50.691Z,12.57
2022-08-21T02:22:37.800Z,10.32
2022-08-21T02:25:19.440Z,8.85
2022-08-21T02:28:12.420Z,10.05
2022-08-21T02:30:56.447Z,11.90
2022-08-21T02:33:43.530Z,12.02
2022-08-21T02:36:25.896Z,10.52
2022-08-21T02:39:13.416Z,10.45
2022-08-21T02:41:54.467Z,10.15
2022-08-21T02:44:43.448Z,11.88
2022-08-21T02:47:25.596Z,11.50
2022-08-21T02:50:15.465Z,7.50
2022-08-21T02:53:00.718Z,11.60
2022-08-21T02:55:48.288Z,11.77
2022-08-21T02:58:36.334Z,12.32
2022-08-21T03:01:23.471Z,10.23
2022-08-21T03:04:06.636Z,8.95
2022-08-21T03:06:53.685Z,10.63
2022-08-21T03:09:35.759Z,10.30
2022-08-21T03:12:23.439Z,11.80
2022-08-21T03:15:07.777Z,9.30
2022-08-21T03:17:55.663Z,6.70
2022-08-21T03:20:50.367Z,11.45
2022-08-21T03:23:41.035Z,10.55
2022-08-21T03:26:23.823Z,10.10
2022-08-21T03:29:11.694Z,8.55
2022-08-21T03:31:53.437Z,12.00
2022-08-21T03:34:40.646Z,9.20
2022-08-21T03:40:15.870Z,10.38
2022-08-21T03:42:57.001Z,13.18
2022-08-21T03:45:47.433Z,10.43
2022-08-21T03:48:29.767Z,9.27
2022-08-21T03:51:19.531Z,9.68
2022-08-21T03:54:02.348Z,10.10
2022-08-21T03:56:50.529Z,11.32
2022-08-21T03:59:31.429Z,8.95
2022-08-21T04:02:19.868Z,9.75
2022-08-21T04:05:00.411Z,12.13
2022-08-21T04:07:47.492Z,13.82
2022-08-21T04:10:28.772Z,11.27
2022-08-21T04:13:17.315Z,7.68
2022-08-21T04:15:58.361Z,12.07
2022-08-21T04:18:50.453Z,11.05
2022-08-21T04:21:46.395Z,16.73
2022-08-21T04:24:35.654Z,10.55
2022-08-21T04:27:16.437Z,14.98
2022-08-21T04:30:04.455Z,11.55
2022-08-21T04:32:45.733Z,13.23
2022-08-21T04:35:34.660Z,11.02
2022-08-21T04:38:19.419Z,7.18
2022-08-21T04:41:07.488Z,9.00
2022-08-21T04:43:48.362Z,10.00
2022-08-21T04:46:35.519Z,9.82
2022-08-21T04:49:16.396Z,11.93
2022-08-21T04:52:04.667Z,6.38
2022-08-21T04:54:45.776Z,7.82
2022-08-21T04:57:48.254Z,10.88
2022-08-21T05:00:32.757Z,11.55
2022-08-21T05:03:23.505Z,11.70
2022-08-21T05:06:04.765Z,11.20
2022-08-21T05:08:58.827Z,8.82
2022-08-21T05:11:44.395Z,15.63
2022-08-21T05:14:34.104Z,12.77
2022-08-21T05:17:16.202Z,9.15
2022-08-21T05:20:04.341Z,9.80
2022-08-21T05:22:51.443Z,12.20
2022-08-21T05:25:32.489Z,10.32
2022-08-21T05:28:23.529Z,10.05
2022-08-21T05:31:04.887Z,10.65
2022-08-21T05:33:53.115Z,7.90
2022-08-21T05:36:36.510Z,12.77
2022-08-21T05:39:26.427Z,10.27
2022-08-21T05:42:07.625Z,13.13
2022-08-21T05:44:54.458Z,7.70
2022-08-21T05:47:35.497Z,11.75
2022-08-21T05:50:24.393Z,13.20
2022-08-21T05:53:10.874Z,15.52
2022-08-21T05:55:58.521Z,10.38
2022-08-21T05:58:40.528Z,11.18
2022-08-21T06:01:28.490Z,11.02
2022-08-21T06:04:12.819Z,10.85
2022-08-21T06:07:00.492Z,11.13
2022-08-21T06:09:41.664Z,13.98
2022-08-21T06:12:30.443Z,11.93
2022-08-21T06:15:12.987Z,11.45
2022-08-21T06:18:02.445Z,12.48
2022-08-21T06:20:50.418Z,13.05
2022-08-21T06:23:47.235Z,10.93
2022-08-21T06:26:34.592Z,10.10
2022-08-21T06:29:18.670Z,10.05
2022-08-21T06:32:09.464Z,14.82
2022-08-21T06:34:51.648Z,12.50
2022-08-21T06:37:39.602Z,14.05
2022-08-21T06:40:20.518Z,11.85
2022-08-21T06:43:20.525Z,16.52
2022-08-21T06:46:02.603Z,14.90
2022-08-21T06:48:50.526Z,15.07
2022-08-21T06:51:38.458Z,9.88
2022-08-21T06:54:26.571Z,11.68
2022-08-21T06:57:07.907Z,14.40
2022-08-21T06:59:56.439Z,12.65
2022-08-21T07:02:37.911Z,14.00
2022-08-21T07:05:36.779Z,10.82
2022-08-21T07:08:17.955Z,10.05
2022-08-21T07:11:14.037Z,7.13
2022-08-21T07:13:55.416Z,9.35
2022-08-21T07:16:45.575Z,10.63
2022-08-21T07:19:51.661Z,16.20
2022-08-21T07:22:45.430Z,16.67
2022-08-21T07:25:34.244Z,42.92
2022-08-21T07:28:15.601Z,20.70
2022-08-21T07:31:05.537Z,15.75
2022-08-21T07:33:48.103Z,12.60
2022-08-21T07:36:36.622Z,15.23
2022-08-21T07:39:18.774Z,14.30
2022-08-21T07:42:08.495Z,14.68
2022-08-21T07:44:50.780Z,12.55
2022-08-21T07:50:24.592Z,12.23
2022-08-21T07:53:12.795Z,13.65
2022-08-21T07:55:53.599Z,15.40
2022-08-21T07:58:42.979Z,11.63
2022-08-21T08:01:24.252Z,11.98
2022-08-21T08:07:15.991Z,12.68
2022-08-21T08:10:05.939Z,14.18
2022-08-21T08:12:49.611Z,11.32
2022-08-21T08:15:39.553Z,14.02
2022-08-21T08:18:21.042Z,17.15
2022-08-21T08:21:16.475Z,10.57
2022-08-21T08:24:18.991Z,10.25
2022-08-21T08:27:02.629Z,15.48
2022-08-21T08:29:50.105Z,12.57
2022-08-21T08:32:34.004Z,12.88
2022-08-21T08:35:22.367Z,8.35
2022-08-21T08:38:07.447Z,12.25
2022-08-21T08:41:23.031Z,9.82
2022-08-21T08:44:12.589Z,9.25
2022-08-21T08:47:00.615Z,12.35
2022-08-21T08:50:03.003Z,9.27
2022-08-21T08:53:00.283Z,10.82
2022-08-21T08:55:45.287Z,10.77
2022-08-21T08:58:46.619Z,8.88
2022-08-21T09:01:28.625Z,11.90
2022-08-21T09:04:19.443Z,10.63
2022-08-21T09:07:31.531Z,18.08
2022-08-21T09:10:45.636Z,12.13
2022-08-21T09:13:56.001Z,9.80
2022-08-21T09:17:02.359Z,7.97
2022-08-21T09:20:06.751Z,11.07
2022-08-21T09:23:08.621Z,4.10
2022-08-21T09:26:07.568Z,9.68
2022-08-21T09:29:04.298Z,10.40
2022-08-21T09:31:45.747Z,10.05
2022-08-21T09:34:38.633Z,10.93
2022-08-21T09:37:25.617Z,11.43
2022-08-21T09:40:34.788Z,8.23
2022-08-21T09:43:18.826Z,10.13
2022-08-21T09:46:18.642Z,7.53
2022-08-21T09:49:06.799Z,9.02
2022-08-21T09:52:02.406Z,10.20
2022-08-21T09:54:47.589Z,7.22
2022-08-21T09:57:46.623Z,6.25
2022-08-21T10:00:38.088Z,6.32
2022-08-21T10:03:28.872Z,8.00
2022-08-21T10:06:17.860Z,9.30
2022-08-21T10:09:18.843Z,8.02
2022-08-21T10:12:20.589Z,9.68
2022-08-21T10:15:21.435Z,5.90
2022-08-21T10:18:02.573Z,7.88
2022-08-21T10:21:25.569Z,7.78
2022-08-21T10:24:31.087Z,5.13
2022-08-21T10:27:33.284Z,3.95
2022-08-21T10:31:01.621Z,6.18
2022-08-21T10:33:59.695Z,7.68
2022-08-21T10:37:23.611Z,8.05
2022-08-21T10:40:30.284Z,4.25
2022-08-21T10:43:48.636Z,6.32
2022-08-21T10:46:52.698Z,9.85
2022-08-21T10:50:03.006Z,8.52
2022-08-21T10:52:59.047Z,6.40
2022-08-21T10:58:44.866Z,11.85
2022-08-21T11:01:41.615Z,8.38
2022-08-21T11:04:49.497Z,10.07
2022-08-21T11:07:45.991Z,7.60
2022-08-21T11:10:59.174Z,8.40
2022-08-21T11:17:22.256Z,7.00
2022-08-21T11:20:22.623Z,7.03
2022-08-21T11:23:24.704Z,8.23
2022-08-21T11:26:16.064Z,8.15
2022-08-21T11:29:23.748Z,8.90
2022-08-21T11:32:10.239Z,9.48
2022-08-21T11:35:12.690Z,7.18
2022-08-21T11:37:56.710Z,5.40
2022-08-21T11:40:46.875Z,8.60
2022-08-21T11:43:53.047Z,9.73
2022-08-21T11:46:54.714Z,6.47
2022-08-21T11:49:42.723Z,7.75
2022-08-21T11:52:37.247Z,8.55
2022-08-21T11:55:17.736Z,9.15
2022-08-21T11:58:28.740Z,9.43
2022-08-21T12:01:33.406Z,8.43
2022-08-21T12:04:43.127Z,6.70
2022-08-21T12:07:43.772Z,8.50
2022-08-21T12:10:41.032Z,4.88
2022-08-21T12:13:42.026Z,5.82
2022-08-21T12:16:40.866Z,9.35
2022-08-21T12:19:37.676Z,6.10
2022-08-21T12:22:34.637Z,6.15
2022-08-21T12:25:27.284Z,7.45
2022-08-21T12:28:18.498Z,4.30
2022-08-21T12:31:05.715Z,6.60
2022-08-21T12:33:47.736Z,9.48
2022-08-21T12:36:57.035Z,7.95
2022-08-21T12:39:40.214Z,8.25
2022-08-21T12:42:35.485Z,3.20
2022-08-21T12:45:40.747Z,6.93
2022-08-21T12:48:42.654Z,5.75
2022-08-21T12:51:30.292Z,4.80
2022-08-21T12:54:17.038Z,3.75
2022-08-21T12:57:31.798Z,3.45
2022-08-21T13:00:21.658Z,4.60
2022-08-21T13:03:04.277Z,2.75
2022-08-21T13:05:50.650Z,2.03
2022-08-21T13:08:39.517Z,4.43
2022-08-21T13:11:33.707Z,1.92
2022-08-21T13:14:24.800Z,3.90
2022-08-21T13:17:20.324Z,3.55
2022-08-21T13:20:11.758Z,2.58
2022-08-21T13:23:06.539Z,3.42
2022-08-21T13:25:50.852Z,4.32
2022-08-21T13:28:53.229Z,3.15
2022-08-21T13:31:37.807Z,4.03
2022-08-21T13:34:28.128Z,2.65
2022-08-21T13:37:13.235Z,2.33
2022-08-21T13:40:00.900Z,2.72
2022-08-21T13:42:42.130Z,3.85
2022-08-21T13:45:38.769Z,2.58
2022-08-21T13:48:24.379Z,2.70
2022-08-21T13:51:17.299Z,6.18
2022-08-21T13:53:59.798Z,1.80
2022-08-21T13:56:55.702Z,2.45
2022-08-21T13:59:42.975Z,1.67
2022-08-21T14:02:31.751Z,2.33
2022-08-21T14:05:12.809Z,3.25
2022-08-21T14:08:30.434Z,1.38
2022-08-21T14:11:12.867Z,2.05
2022-08-21T14:14:06.194Z,1.90
2022-08-21T14:17:25.017Z,2.75
2022-08-21T14:20:21.090Z,3.20
2022-08-21T14:23:10.977Z,2.55
2022-08-21T14:25:54.573Z,3.13
2022-08-21T14:28:48.828Z,3.92
2022-08-21T14:31:41.823Z,3.97
2022-08-21T14:34:36.350Z,3.08
2022-08-21T14:37:16.784Z,2.58
2022-08-21T14:40:04.873Z,2.63
2022-08-21T14:42:48.810Z,1.65
2022-08-21T14:45:44.764Z,1.40
2022-08-21T14:48:27.107Z,2.25
2022-08-21T14:51:14.849Z,2.30
2022-08-21T14:53:55.751Z,2.33
2022-08-21T14:56:47.747Z,3.13
2022-08-21T14:59:29.797Z,3.00
2022-08-21T15:02:17.839Z,2.08
2022-08-21T15:05:00.122Z,3.72
2022-08-21T15:07:48.239Z,1.95
2022-08-21T15:10:29.467Z,3.95
2022-08-21T15:13:16.860Z,1.15
2022-08-21T15:16:00.893Z,2.13
2022-08-21T15:18:50.295Z,1.45
2022-08-21T15:21:31.333Z,1.33
2022-08-21T15:24:18.837Z,1.42
2022-08-21T15:27:01.937Z,2.53
2022-08-21T15:29:54.235Z,1.67
2022-08-21T15:32:36.783Z,2.78
2022-08-21T15:35:24.930Z,1.55
2022-08-21T15:38:06.289Z,1.30
2022-08-21T15:41:01.631Z,2.20
2022-08-21T15:43:50.743Z,1.73
2022-08-21T15:46:38.910Z,2.15
2022-08-21T15:49:22.003Z,1.40
2022-08-21T15:52:10.815Z,1.85
2022-08-21T15:54:52.304Z,1.13
2022-08-21T15:57:38.907Z,2.15
2022-08-21T16:00:24.278Z,1.33
2022-08-21T16:03:16.065Z,1.90
2022-08-21T16:05:59.857Z,0.93
2022-08-21T16:08:47.936Z,1.55
2022-08-21T16:11:29.012Z,2.42
2022-08-21T16:14:23.369Z,1.58
2022-08-21T16:17:04.554Z,1.35
2022-08-21T16:19:53.030Z,1.58
2022-08-21T16:22:47.972Z,1.48
2022-08-21T16:25:35.877Z,2.45
2022-08-21T16:28:23.863Z,1.55
2022-08-21T16:31:11.912Z,1.10
2022-08-21T16:34:00.998Z,1.85
2022-08-21T16:36:48.133Z,1.15
2022-08-21T16:39:29.209Z,1.13
2022-08-21T16:42:21.862Z,1.80
2022-08-21T16:45:03.803Z,2.13
2022-08-21T16:47:52.043Z,2.45
2022-08-21T16:50:34.205Z,1.38
2022-08-21T16:53:20.875Z,1.30
2022-08-21T16:56:08.571Z,1.35
2022-08-21T16:58:57.928Z,2.38
2022-08-21T17:01:40.891Z,2.05
2022-08-21T17:04:28.938Z,1.00
2022-08-21T17:07:10.273Z,3.83
2022-08-21T17:09:59.105Z,2.35
2022-08-21T17:12:41.558Z,1.20
2022-08-21T17:15:34.924Z,1.27
2022-08-21T17:18:20.278Z,1.98
2022-08-21T17:21:09.227Z,1.27
2022-08-21T17:24:04.842Z,2.10
2022-08-21T17:26:51.922Z,2.22
2022-08-21T17:29:41.190Z,1.75
2022-08-21T17:32:32.517Z,2.15
2022-08-21T17:35:15.179Z,0.57
2022-08-21T17:38:01.928Z,0.80
2022-08-21T17:40:46.681Z,2.05
2022-08-21T17:43:36.002Z,1.23
2022-08-21T17:46:24.424Z,2.30
2022-08-21T17:49:16.154Z,1.27
2022-08-21T17:52:01.404Z,1.00
2022-08-21T17:54:50.661Z,1.42
2022-08-21T17:57:34.841Z,2.20
2022-08-21T18:00:25.949Z,3.20
2022-08-21T18:03:20.859Z,2.53
2022-08-21T18:06:08.990Z,6.55
2022-08-21T18:08:51.251Z,2.60
2022-08-21T18:11:38.973Z,1.95
2022-08-21T18:14:21.235Z,2.42
2022-08-21T18:17:09.031Z,3.45
2022-08-21T18:19:50.237Z,2.05
2022-08-21T18:22:43.836Z,1.58
2022-08-21T18:25:31.211Z,2.63
2022-08-21T18:28:14.238Z,2.08
2022-08-21T18:31:27.855Z,0.98
2022-08-21T18:34:19.563Z,1.00
2022-08-21T18:37:09.235Z,2.20
2022-08-21T18:39:50.314Z,1.95
2022-08-21T18:42:55.683Z,1.15
2022-08-21T18:45:38.072Z,3.60
2022-08-21T18:48:29.382Z,1.52
2022-08-21T18:51:11.391Z,0.70
2022-08-21T18:54:00.879Z,1.70
2022-08-21T18:56:42.041Z,2.20
2022-08-21T18:59:34.097Z,2.30
2022-08-21T19:02:16.265Z,1.85
2022-08-21T19:05:05.382Z,1.45
2022-08-21T19:07:47.984Z,2.65
2022-08-21T19:10:36.653Z,2.25
2022-08-21T19:13:21.096Z,1.85
2022-08-21T19:16:12.261Z,2.58
2022-08-21T19:18:53.020Z,2.03
2022-08-21T19:21:43.648Z,2.45
2022-08-21T19:24:39.886Z,1.40
2022-08-21T19:27:37.892Z,1.25
2022-08-21T19:30:19.398Z,2.92
2022-08-21T19:33:06.878Z,2.38
2022-08-21T19:35:48.234Z,3.35
2022-08-21T19:38:43.015Z,2.57
2022-08-21T19:41:25.223Z,3.58
2022-08-21T19:44:15.061Z,0.93
2022-08-21T19:50:17.506Z,2.58
2022-08-21T19:52:59.148Z,2.42
2022-08-21T19:55:50.960Z,1.52
2022-08-21T19:58:35.517Z,1.80
2022-08-21T20:01:28.041Z,4.50
2022-08-21T20:04:18.242Z,2.00
2022-08-21T20:07:08.235Z,1.80
2022-08-21T20:10:08.057Z,3.38
2022-08-21T20:12:58.034Z,2.35
2022-08-21T20:15:39.017Z,1.42
2022-08-21T20:18:32.676Z,3.70
2022-08-21T20:21:14.239Z,3.03
2022-08-21T20:24:11.501Z,1.05
2022-08-21T20:27:05.979Z,2.20
2022-08-21T20:29:47.715Z,1.58
2022-08-21T20:32:39.080Z,1.85
2022-08-21T20:35:23.956Z,1.27
2022-08-21T20:41:30.281Z,1.33
2022-08-21T20:44:20.051Z,2.40
2022-08-21T20:47:01.012Z,2.22
2022-08-21T20:50:10.434Z,2.20
2022-08-21T20:52:58.719Z,2.53
2022-08-21T20:55:57.256Z,2.63
2022-08-21T20:58:49.687Z,1.55
2022-08-21T21:01:41.076Z,1.50
2022-08-21T21:04:39.025Z,1.20
2022-08-21T21:07:45.956Z,1.23
2022-08-21T21:10:44.859Z,2.42
2022-08-21T21:13:47.059Z,2.80
2022-08-21T21:16:52.205Z,1.52
2022-08-21T21:19:40.215Z,2.90
2022-08-21T21:22:34.309Z,2.42
2022-08-21T21:25:47.041Z,2.87
2022-08-21T21:28:55.144Z,2.25
2022-08-21T21:31:43.506Z,4.65
2022-08-21T21:34:24.332Z,2.28
2022-08-21T21:40:26.373Z,4.32
2022-08-21T21:43:18.332Z,2.65
2022-08-21T21:46:32.542Z,4.95
2022-08-21T21:49:39.080Z,2.30
2022-08-21T21:53:00.020Z,3.45
2022-08-21T21:55:53.591Z,1.80
2022-08-21T21:58:45.973Z,2.53
2022-08-21T22:01:44.118Z,2.20
2022-08-21T22:04:38.992Z,2.75
2022-08-21T22:07:55.231Z,3.10
2022-08-21T22:10:47.076Z,2.17
2022-08-21T22:13:49.061Z,2.50
2022-08-21T22:16:30.468Z,2.00
2022-08-21T22:19:29.324Z,2.30
2022-08-21T22:22:20.018Z,5.25
2022-08-21T22:25:35.954Z,2.15
2022-08-21T22:28:31.030Z,2.92
2022-08-21T22:31:34.943Z,3.83
2022-08-21T22:34:26.755Z,2.63
2022-08-21T22:37:14.399Z,2.60
2022-08-21T22:40:05.384Z,4.68
2022-08-21T22:42:46.492Z,3.78
2022-08-21T22:45:39.808Z,5.90
2022-08-21T22:48:27.118Z,3.10
2022-08-21T22:51:32.339Z,1.90
2022-08-21T22:54:16.682Z,5.43
2022-08-21T22:57:15.466Z,3.53
2022-08-21T23:00:04.118Z,2.95
2022-08-21T23:02:59.493Z,3.88
2022-08-21T23:05:44.414Z,2.17
2022-08-21T23:11:50.742Z,5.15
2022-08-21T23:14:42.824Z,7.32
2022-08-21T23:17:51.742Z,3.20
2022-08-21T23:21:16.387Z,6.40
2022-08-21T23:24:26.993Z,4.57
2022-08-21T23:27:46.042Z,5.10
2022-08-21T23:30:47.544Z,3.13
2022-08-21T23:33:42.122Z,2.17
2022-08-21T23:36:58.747Z,2.95
2022-08-21T23:40:04.436Z,6.50
2022-08-21T23:43:18.563Z,2.35
2022-08-21T23:46:15.060Z,2.50
2022-08-21T23:49:19.150Z,4.05
2022-08-21T23:52:17.769Z,3.78
2022-08-21T23:55:43.484Z,2.22
2022-08-21T23:59:28.163Z,3.83
